KSNK/SNK METAR and TAF weather

Enter ICAO airport designator
Station Type Date Time Source
KSNK METAR 2022/06/26 08:55 UTC NOAA

KSNK 260855Z AUTO 00000KT 10SM BKN120 26/07 A3011 RMK AO2 T02560065


Station Type Date Time Source
KSNK Decoded METAR 2022/06/26 08:55 UTC NOAA

Snyder, Winston Field Airport, TX, United States (KSNK) 32-41-36N 100-57-01W
Jun 26, 2022 - 04:55 AM EDT / 2022.06.26 0855 UTC
Wind: Calm:0
Visibility: 10 mile(s):0
Sky conditions: mostly cloudy
Temperature: 78.1 F (25.6 C)
Dew Point: 43.7 F (6.5 C)
Relative Humidity: 29%
Pressure (altimeter): 30.11 in. Hg (1019 hPa)
ob: KSNK 260855Z AUTO 00000KT 10SM BKN120 26/07 A3011 RMK AO2 T02560065
cycle: 9

Station Type Date Time Source
KSNK TAF UTC NOAA

Error!

Example: see airport list